Time;durP1;ratioP1;P1;durP2;ratioP2;P2;SDS_P1;SDS_P2;PMS_P1;PMS_P2;Temp;Humidity;BMP_temperature;BMP_pressure;BME280_temperature;BME280_humidity;BME280_pressure;Samples;Min_cycle;Max_cycle;Signal;HPM_P1;HPM_P2
2022/12/05 00:01:53;;;;;;;2.03;1.93;;;;;;;4.44;88.29;95088.25;4362714;32;20196;-61
2022/12/05 00:04:20;;;;;;;1.70;1.60;;;;;;;3.96;90.69;95087.59;4381111;32;20281;-61
2022/12/05 00:06:46;;;;;;;1.60;1.57;;;;;;;4.06;91.09;95092.91;4380116;32;20203;-61
2022/12/05 00:09:13;;;;;;;6.87;3.40;;;;;;;4.01;90.66;95090.25;4374611;32;20272;-61
2022/12/05 00:11:53;;;;;;;2.80;2.57;;;;;;;3.87;91.38;95104.91;4359960;32;20288;-60
2022/12/05 00:14:20;;;;;;;1.67;1.67;;;;;;;3.97;91.42;95112.78;4351587;32;20269;-61
2022/12/05 00:16:45;;;;;;;4.47;2.77;;;;;;;3.81;92.33;95108.53;4376397;32;20365;-61
2022/12/05 00:19:13;;;;;;;2.80;2.70;;;;;;;3.97;91.95;95099.66;4372135;32;20265;-61
2022/12/05 00:21:41;;;;;;;2.80;2.60;;;;;;;3.70;93.17;95101.69;4338830;32;20185;-61
2022/12/05 00:24:11;;;;;;;2.53;2.43;;;;;;;4.03;91.89;95103.91;4397657;32;20273;-62
2022/12/05 00:26:38;;;;;;;2.23;2.13;;;;;;;4.35;91.04;95110.84;4360832;32;20268;-61
2022/12/05 00:29:05;;;;;;;1.97;1.77;;;;;;;4.19;90.74;95106.56;4369662;32;20281;-61
2022/12/05 00:31:33;;;;;;;2.87;2.67;;;;;;;3.95;92.01;95122.75;4352977;32;20304;-61
2022/12/05 00:34:01;;;;;;;1.93;1.83;;;;;;;4.18;91.85;95126.78;4338889;32;20356;-61
2022/12/05 00:36:31;;;;;;;2.83;2.63;;;;;;;4.38;90.76;95110.28;4350721;32;20273;-61
2022/12/05 00:39:00;;;;;;;1.73;1.63;;;;;;;4.60;89.32;95118.75;4369780;32;20404;-61
2022/12/05 00:41:46;;;;;;;2.57;2.47;;;;;;;4.46;89.81;95117.69;4384287;32;20429;-61
2022/12/05 00:44:14;;;;;;;2.77;2.67;;;;;;;4.33;90.78;95120.81;4381565;32;20386;-61
2022/12/05 00:46:41;;;;;;;1.37;1.37;;;;;;;4.46;90.10;95117.69;4378484;32;20314;-61
2022/12/05 00:49:07;;;;;;;2.80;2.70;;;;;;;4.13;91.31;95124.94;4376867;32;20331;-61
2022/12/05 00:51:39;;;;;;;2.03;1.93;;;;;;;4.16;91.66;95128.09;4363507;32;20295;-62
2022/12/05 00:54:13;;;;;;;2.53;2.33;;;;;;;3.97;91.83;95133.78;4374168;32;20196;-61
2022/12/05 00:56:40;;;;;;;2.43;2.33;;;;;;;4.18;91.32;95126.00;4361174;32;20276;-61
2022/12/05 00:59:06;;;;;;;11.53;3.30;;;;;;;4.04;91.79;95136.97;4372777;32;20281;-61
2022/12/05 01:01:38;;;;;;;2.20;2.10;;;;;;;3.80;92.41;95139.22;4353157;32;20260;-61
2022/12/05 01:04:11;;;;;;;2.10;2.00;;;;;;;3.91;93.09;95134.81;4348732;32;20276;-61
2022/12/05 01:06:36;;;;;;;1.60;1.50;;;;;;;3.92;92.21;95146.91;4383252;32;20273;-61
2022/12/05 01:09:03;;;;;;;2.00;1.87;;;;;;;3.72;93.76;95138.94;4399496;32;20383;-61
2022/12/05 01:11:30;;;;;;;3.63;3.37;;;;;;;3.82;93.09;95140.81;4388651;32;20308;-61
2022/12/05 01:13:57;;;;;;;3.23;3.03;;;;;;;3.58;93.96;95141.19;4395847;32;20339;-61
2022/12/05 01:16:32;;;;;;;4.37;4.17;;;;;;;3.56;94.45;95145.13;4373905;32;20276;-61
2022/12/05 01:19:03;;;;;;;2.17;1.97;;;;;;;3.61;94.34;95150.41;4331215;32;20292;-61
2022/12/05 01:21:31;;;;;;;1.87;1.77;;;;;;;3.66;94.26;95176.66;4350471;32;20281;-61
2022/12/05 01:23:59;;;;;;;3.57;3.23;;;;;;;3.57;94.15;95181.56;4360552;32;20502;-61
2022/12/05 01:26:25;;;;;;;2.73;2.43;;;;;;;3.54;94.39;95181.28;4372115;32;20363;-61
2022/12/05 01:28:51;;;;;;;2.00;1.97;;;;;;;3.33;95.40;95191.63;4335570;32;20300;-62
2022/12/05 01:31:26;;;;;;;2.37;2.27;;;;;;;3.44;95.57;95198.53;4375315;32;20229;-61
2022/12/05 01:33:53;;;;;;;2.53;2.43;;;;;;;3.75;94.87;95196.09;4369657;32;20340;-60
2022/12/05 01:36:20;;;;;;;2.47;2.37;;;;;;;3.65;94.98;95183.75;4355582;32;20335;-60
2022/12/05 01:38:47;;;;;;;2.80;2.70;;;;;;;3.64;94.56;95178.75;4351549;32;20277;-61
2022/12/05 01:41:20;;;;;;;3.13;2.93;;;;;;;3.67;94.92;95171.16;4377973;32;20310;-61
2022/12/05 01:44:21;;;;;;;2.60;2.47;;;;;;;3.68;95.08;95170.13;4373192;32;20337;-61
2022/12/05 01:46:51;;;;;;;2.10;2.00;;;;;;;3.78;94.92;95185.13;4310047;32;20301;-61
2022/12/05 01:49:40;;;;;;;3.33;3.10;;;;;;;3.84;93.89;95180.69;4359418;32;20312;-61
2022/12/05 01:52:22;;;;;;;3.77;3.47;;;;;;;3.69;94.69;95190.06;4346626;32;20314;-62
2022/12/05 01:54:53;;;;;;;1.97;1.87;;;;;;;3.75;94.42;95196.09;4370965;32;20291;-61
2022/12/05 01:57:20;;;;;;;3.43;3.17;;;;;;;3.68;94.80;95208.69;4381144;32;20334;-61
2022/12/05 01:59:51;;;;;;;3.40;3.20;;;;;;;3.62;95.15;95217.53;4372667;32;20371;-61
2022/12/05 02:02:18;;;;;;;2.17;2.17;;;;;;;3.84;94.52;95210.34;4350486;32;20290;-61
2022/12/05 02:05:06;;;;;;;3.90;3.53;;;;;;;3.76;94.60;95203.72;4384022;32;20276;-61
2022/12/05 02:07:33;;;;;;;4.07;3.67;;;;;;;3.61;95.39;95215.97;4360574;32;20276;-61
2022/12/05 02:10:00;;;;;;;2.87;2.27;;;;;;;3.75;94.50;95219.72;4326280;32;20293;-61
2022/12/05 02:12:27;;;;;;;2.80;2.60;;;;;;;3.61;95.29;95221.19;4370711;32;20382;-61
2022/12/05 02:15:20;;;;;;;2.80;2.60;;;;;;;3.56;95.87;95229.81;4364182;32;20285;-61
2022/12/05 02:18:23;;;;;;;2.63;2.43;;;;;;;3.44;96.31;95250.97;4351313;32;20353;-61
2022/12/05 02:20:51;;;;;;;3.00;2.80;;;;;;;3.60;95.62;95267.63;4342605;32;20334;-61
2022/12/05 02:23:38;;;;;;;3.03;2.83;;;;;;;3.74;95.38;95252.25;4349492;32;20328;-61
2022/12/05 02:26:42;;;;;;;5.07;3.57;;;;;;;3.69;95.36;95255.63;4353887;32;20290;-61
2022/12/05 02:29:46;;;;;;;2.73;2.53;;;;;;;3.59;96.08;95252.91;4337371;32;20301;-61
2022/12/05 02:32:32;;;;;;;2.67;2.50;;;;;;;3.50;95.57;95257.06;4350650;32;20335;-61
2022/12/05 02:35:45;;;;;;;2.63;2.20;;;;;;;3.52;95.84;95241.88;4376044;32;20273;-61
2022/12/05 02:38:41;;;;;;;2.13;1.93;;;;;;;3.47;96.33;95259.38;4337641;32;20426;-61
2022/12/05 02:41:19;;;;;;;2.67;2.50;;;;;;;3.56;96.32;95250.00;4373488;32;20347;-60
2022/12/05 02:44:27;;;;;;;4.57;4.27;;;;;;;3.51;96.17;95270.97;4345554;32;20287;-61
2022/12/05 02:46:59;;;;;;;3.03;2.83;;;;;;;3.48;96.38;95274.09;4356985;32;20356;-61
2022/12/05 02:49:32;;;;;;;2.47;2.30;;;;;;;3.51;95.89;95271.75;4374928;32;20281;-61
2022/12/05 02:52:00;;;;;;;3.40;3.23;;;;;;;3.58;95.30;95274.94;4374581;32;20281;-61
2022/12/05 02:54:34;;;;;;;4.63;4.23;;;;;;;3.55;95.35;95270.19;4360719;32;20371;-61
2022/12/05 02:57:03;;;;;;;3.77;3.57;;;;;;;3.40;96.15;95280.56;4351455;32;20283;-61
2022/12/05 02:59:29;;;;;;;3.17;2.93;;;;;;;3.22;97.34;95273.06;4314572;32;20324;-61
2022/12/05 03:02:02;;;;;;;3.03;2.73;;;;;;;3.29;96.46;95284.16;4361750;32;20439;-61
2022/12/05 03:04:29;;;;;;;3.30;3.20;;;;;;;3.32;96.67;95283.66;4346051;32;20372;-60
2022/12/05 03:07:10;;;;;;;2.07;2.03;;;;;;;3.35;96.83;95281.31;4330575;32;20296;-60
2022/12/05 03:09:54;;;;;;;2.97;2.67;;;;;;;3.43;96.66;95286.09;4379771;32;20349;-62
2022/12/05 03:12:32;;;;;;;2.80;2.70;;;;;;;3.38;96.41;95288.66;4358544;32;20273;-60
2022/12/05 03:15:23;;;;;;;2.00;1.90;;;;;;;3.46;96.26;95287.44;4363857;32;20278;-61
2022/12/05 03:18:09;;;;;;;3.13;2.93;;;;;;;3.49;95.56;95301.88;4373439;32;20291;-60
2022/12/05 03:20:48;;;;;;;1.73;1.63;;;;;;;3.23;96.04;95320.00;4367580;32;20300;-61
2022/12/05 03:23:22;;;;;;;3.27;3.07;;;;;;;3.44;95.70;95323.59;4362067;32;20348;-61
2022/12/05 03:26:10;;;;;;;3.03;2.80;;;;;;;3.21;96.09;95323.88;4377824;32;20336;-61
2022/12/05 03:28:57;;;;;;;3.67;3.43;;;;;;;3.43;95.82;95335.91;4381192;32;20276;-61
2022/12/05 03:31:38;;;;;;;1.50;1.43;;;;;;;3.29;95.78;95326.09;4364770;32;20287;-60
2022/12/05 03:34:07;;;;;;;2.03;1.93;;;;;;;3.13;96.70;95330.34;4372021;32;20303;-60
2022/12/05 03:36:40;;;;;;;2.60;2.50;;;;;;;3.21;96.59;95327.31;4368156;32;20296;-61
2022/12/05 03:39:20;;;;;;;2.80;2.60;;;;;;;3.29;96.49;95334.75;4368546;32;20335;-60
2022/12/05 03:42:05;;;;;;;2.67;2.57;;;;;;;3.40;96.83;95335.63;4367093;32;20314;-61
2022/12/05 03:44:41;;;;;;;2.93;2.80;;;;;;;3.22;97.21;95339.38;4381967;32;20295;-61
2022/12/05 03:47:13;;;;;;;3.50;2.17;;;;;;;3.35;97.21;95338.19;4385906;32;20288;-61
2022/12/05 03:49:46;;;;;;;2.03;1.93;;;;;;;3.53;95.91;95344.94;4366625;32;20293;-61
2022/12/05 03:52:18;;;;;;;2.53;2.40;;;;;;;3.55;95.98;95353.31;4376984;32;20348;-61
2022/12/05 03:54:52;;;;;;;2.97;2.53;;;;;;;3.47;95.76;95351.16;4373464;32;20281;-60
2022/12/05 03:57:29;;;;;;;2.63;2.53;;;;;;;3.37;95.90;95350.00;4379485;32;20271;-61
2022/12/05 04:00:08;;;;;;;2.87;2.67;;;;;;;3.35;96.05;95356.53;4362523;32;20350;-60
2022/12/05 04:02:46;;;;;;;2.60;2.40;;;;;;;3.29;96.72;95357.53;4363519;32;20285;-61
2022/12/05 04:05:39;;;;;;;2.07;2.00;;;;;;;3.11;97.24;95353.41;4373602;32;20281;-61
2022/12/05 04:08:16;;;;;;;2.97;2.73;;;;;;;3.28;97.22;95343.63;4370203;32;20281;-60
2022/12/05 04:10:48;;;;;;;2.40;2.30;;;;;;;3.40;96.49;95349.50;4367882;32;20278;-60
2022/12/05 04:13:23;;;;;;;2.37;2.27;;;;;;;3.57;96.12;95346.00;4369527;32;20272;-61
2022/12/05 04:18:42;;;;;;;3.23;3.03;;;;;;;3.52;96.00;95364.31;4387749;32;20374;-61
2022/12/05 04:26:44;;;;;;;2.27;2.17;;;;;;;3.33;96.76;95377.75;4366172;32;20350;-60
2022/12/05 04:29:24;;;;;;;2.40;1.83;;;;;;;3.55;96.15;95372.47;4376160;32;20281;-61
2022/12/05 04:31:56;;;;;;;3.40;2.27;;;;;;;3.55;96.04;95367.22;4369877;32;20276;-60
2022/12/05 04:34:24;;;;;;;2.53;2.43;;;;;;;3.49;96.49;95373.47;4360828;32;20277;-60
2022/12/05 04:36:56;;;;;;;8.67;2.77;;;;;;;3.56;95.94;95387.16;4382705;32;20363;-61
2022/12/05 04:39:28;;;;;;;3.33;3.13;;;;;;;3.37;96.34;95380.69;4361745;32;20311;-61
2022/12/05 04:41:59;;;;;;;3.30;2.87;;;;;;;3.47;96.38;95377.38;4387793;32;20284;-60
2022/12/05 04:44:28;;;;;;;1.67;1.67;;;;;;;3.68;95.69;95373.91;4387420;32;20335;-61
2022/12/05 04:46:55;;;;;;;2.03;1.93;;;;;;;3.67;95.58;95386.25;4365769;32;20276;-61
2022/12/05 04:49:25;;;;;;;2.73;2.53;;;;;;;3.84;94.92;95367.75;4363696;32;20272;-60
2022/12/05 04:51:54;;;;;;;1.87;1.77;;;;;;;3.72;95.19;95377.62;4370651;32;20288;-60
2022/12/05 04:54:25;;;;;;;2.87;2.67;;;;;;;3.75;94.93;95374.47;4383859;32;20368;-60
2022/12/05 04:56:55;;;;;;;1.67;1.67;;;;;;;3.88;94.23;95358.34;4373729;32;20280;-60
2022/12/05 04:59:20;;;;;;;2.27;2.17;;;;;;;3.84;94.55;95356.47;4372937;32;20368;-61
2022/12/05 05:01:52;;;;;;;2.73;2.60;;;;;;;3.79;95.20;95359.84;4367062;32;20284;-61
2022/12/05 05:04:30;;;;;;;2.13;2.03;;;;;;;3.72;94.97;95343.53;4360342;32;20243;-61
2022/12/05 05:06:56;;;;;;;2.20;2.10;;;;;;;3.85;94.94;95345.72;4377851;32;20375;-61
2022/12/05 05:09:21;;;;;;;1.77;1.77;;;;;;;4.00;94.17;95347.69;4370945;32;20300;-61
2022/12/05 05:11:47;;;;;;;2.20;2.10;;;;;;;3.96;94.43;95336.09;4364126;32;20293;-61
2022/12/05 05:14:12;;;;;;;4.10;2.87;;;;;;;3.91;94.52;95347.38;4367280;32;20184;-61
2022/12/05 05:16:40;;;;;;;2.03;2.03;;;;;;;3.91;94.53;95344.75;4361666;32;20212;-62
2022/12/05 05:19:07;;;;;;;1.47;1.47;;;;;;;4.09;94.43;95348.81;4366560;32;20207;-64
2022/12/05 05:21:38;;;;;;;3.90;3.60;;;;;;;4.02;94.45;95354.25;4367013;32;20269;-61
2022/12/05 05:24:04;;;;;;;8.87;3.10;;;;;;;3.98;94.35;95368.13;4370756;32;20280;-60
2022/12/05 05:26:32;;;;;;;3.07;2.97;;;;;;;3.95;94.58;95372.03;4371612;32;20277;-60
2022/12/05 05:28:58;;;;;;;3.30;3.03;;;;;;;3.91;95.04;95372.81;4376409;32;20315;-61
2022/12/05 05:31:23;;;;;;;3.53;3.33;;;;;;;3.97;95.10;95372.59;4360204;32;20282;-60
2022/12/05 05:33:50;;;;;;;2.67;2.57;;;;;;;3.92;95.26;95372.56;4364099;32;20177;-62
2022/12/05 05:36:16;;;;;;;2.93;2.67;;;;;;;3.92;95.30;95375.19;4375070;32;20189;-61
2022/12/05 05:38:44;;;;;;;3.33;3.03;;;;;;;4.07;95.10;95372.69;4370836;32;20388;-61
2022/12/05 05:41:15;;;;;;;3.10;2.80;;;;;;;4.08;95.22;95376.88;4372942;32;20200;-61
2022/12/05 05:43:41;;;;;;;4.77;3.03;;;;;;;4.01;94.84;95373.66;4367313;32;20273;-61
2022/12/05 05:46:07;;;;;;;2.63;2.53;;;;;;;4.16;94.96;95374.84;4375532;32;20386;-61
2022/12/05 05:48:33;;;;;;;3.43;3.13;;;;;;;4.08;94.87;95368.22;4384704;32;20181;-61
2022/12/05 05:50:59;;;;;;;2.83;2.73;;;;;;;4.03;95.24;95376.03;4376110;32;20292;-61
2022/12/05 05:53:24;;;;;;;4.93;3.03;;;;;;;4.17;94.72;95377.19;4368531;32;20193;-61
2022/12/05 05:55:49;;;;;;;2.27;2.17;;;;;;;4.37;93.86;95368.66;4368838;32;20322;-61
2022/12/05 05:58:15;;;;;;;4.03;2.47;;;;;;;4.17;94.46;95379.81;4371227;32;20189;-61
2022/12/05 06:00:40;;;;;;;2.43;2.33;;;;;;;4.21;94.54;95382.75;4372932;32;20199;-61
2022/12/05 06:03:05;;;;;;;5.67;3.97;;;;;;;4.36;94.49;95381.03;4364873;32;20189;-66
2022/12/05 06:05:30;;;;;;;2.90;2.70;;;;;;;4.31;94.38;95393.34;4368197;32;20193;-62
2022/12/05 06:07:56;;;;;;;2.80;2.60;;;;;;;4.29;94.51;95398.03;4385384;32;20192;-62
2022/12/05 06:10:21;;;;;;;2.37;2.27;;;;;;;4.62;93.42;95389.84;4382116;32;20189;-62
2022/12/05 06:12:46;;;;;;;3.10;2.90;;;;;;;4.54;93.01;95392.19;4367296;32;20246;-62
2022/12/05 06:15:12;;;;;;;2.97;2.80;;;;;;;4.77;92.46;95402.31;4369284;32;20200;-62
2022/12/05 06:17:37;;;;;;;2.17;2.07;;;;;;;4.75;92.18;95409.66;4372596;32;20224;-62
2022/12/05 06:20:04;;;;;;;3.13;3.00;;;;;;;4.65;92.53;95410.38;4373128;32;20193;-61
2022/12/05 06:22:30;;;;;;;3.87;2.60;;;;;;;4.69;92.47;95415.91;4369579;32;20252;-61
2022/12/05 06:24:55;;;;;;;4.83;3.67;;;;;;;4.79;92.04;95414.13;4373413;32;20379;-61
2022/12/05 06:27:21;;;;;;;2.70;2.60;;;;;;;4.90;91.42;95412.34;4371735;32;20356;-62
2022/12/05 06:29:46;;;;;;;2.47;2.37;;;;;;;4.70;92.82;95413.03;4362338;32;20196;-62
2022/12/05 06:32:11;;;;;;;1.63;1.63;;;;;;;4.68;92.51;95417.75;4360463;32;20182;-61
2022/12/05 06:34:37;;;;;;;2.43;2.33;;;;;;;4.88;91.99;95416.28;4363457;32;20247;-62
2022/12/05 06:37:03;;;;;;;1.47;1.47;;;;;;;4.67;92.62;95407.47;4374626;32;20227;-61
2022/12/05 06:39:28;;;;;;;3.03;2.87;;;;;;;4.72;93.03;95418.81;4376726;32;20236;-62
2022/12/05 06:41:54;;;;;;;2.77;2.57;;;;;;;4.66;92.65;95417.19;4366672;32;20193;-61
2022/12/05 06:44:20;;;;;;;2.17;2.07;;;;;;;4.78;92.57;95417.78;4367801;32;20188;-62
2022/12/05 06:46:46;;;;;;;2.40;2.30;;;;;;;4.74;92.32;95419.38;4371925;32;20200;-62
2022/12/05 06:49:12;;;;;;;2.13;2.03;;;;;;;4.96;92.07;95427.13;4366158;32;20378;-61
2022/12/05 06:51:37;;;;;;;1.87;1.80;;;;;;;4.80;91.96;95430.69;4369113;32;20416;-62
2022/12/05 06:54:02;;;;;;;2.20;2.10;;;;;;;4.92;91.58;95436.53;4365177;32;20184;-62
2022/12/05 06:56:28;;;;;;;2.17;2.00;;;;;;;4.82;91.89;95442.53;4373377;32;20208;-62
2022/12/05 06:58:54;;;;;;;2.50;2.40;;;;;;;4.87;92.18;95443.59;4365940;32;20302;-62
2022/12/05 07:01:37;;;;;;;5.50;3.10;;;;;;;4.90;91.90;95448.34;4365024;32;20208;-62
2022/12/05 07:04:05;;;;;;;2.20;2.03;;;;;;;4.89;91.63;95444.13;4363056;32;20293;-61
2022/12/05 07:06:30;;;;;;;3.20;3.00;;;;;;;4.81;92.05;95450.66;4374320;32;20292;-62
2022/12/05 07:08:55;;;;;;;1.87;1.80;;;;;;;4.80;92.03;95441.19;4361740;32;20416;-61
2022/12/05 07:11:21;;;;;;;1.37;1.37;;;;;;;4.87;91.97;95446.22;4378322;32;20192;-61
2022/12/05 07:13:46;;;;;;;6.37;3.37;;;;;;;4.78;92.05;95451.19;4369032;32;20200;-61
2022/12/05 07:16:12;;;;;;;2.37;2.13;;;;;;;4.90;91.81;95451.78;4378886;32;20204;-61
2022/12/05 07:18:37;;;;;;;2.73;2.53;;;;;;;4.77;92.05;95455.66;4355880;32;20252;-62
2022/12/05 07:21:10;;;;;;;3.07;2.43;;;;;;;4.81;92.00;95454.06;4371083;32;20210;-61
2022/12/05 07:23:36;;;;;;;6.97;3.07;;;;;;;4.64;92.73;95455.28;4385049;32;20193;-62
2022/12/05 07:26:06;;;;;;;3.20;2.93;;;;;;;4.80;91.76;95451.69;4368712;32;20276;-63
2022/12/05 07:28:32;;;;;;;2.93;2.73;;;;;;;4.86;91.79;95461.19;4378140;32;20199;-62
2022/12/05 07:30:59;;;;;;;1.30;1.30;;;;;;;4.80;91.71;95460.38;4365258;32;20277;-61
2022/12/05 07:33:24;;;;;;;3.27;2.80;;;;;;;4.87;91.80;95464.63;4372082;32;20176;-61
2022/12/05 07:35:50;;;;;;;2.63;2.43;;;;;;;4.90;91.19;95464.13;4380167;32;20264;-61
2022/12/05 07:38:15;;;;;;;2.63;2.43;;;;;;;4.97;91.03;95462.06;4369603;32;20200;-61
2022/12/05 07:40:40;;;;;;;2.17;2.03;;;;;;;4.83;91.78;95464.34;4370617;32;20207;-61
2022/12/05 07:43:06;;;;;;;2.33;2.23;;;;;;;4.97;91.23;95469.97;4361057;32;20212;-62
2022/12/05 07:45:33;;;;;;;1.83;1.73;;;;;;;5.07;91.12;95475.25;4371070;32;20226;-61
2022/12/05 07:47:58;;;;;;;3.03;1.87;;;;;;;5.14;90.61;95481.87;4366573;32;20244;-65
2022/12/05 07:50:24;;;;;;;1.73;1.63;;;;;;;5.24;90.04;95489.03;4362855;32;20296;-61
2022/12/05 07:52:49;;;;;;;8.77;1.47;;;;;;;5.69;94.69;95498.97;4364718;32;20185;-64
2022/12/05 07:55:15;;;;;;;5.50;2.23;;;;;;;6.23;97.75;95496.00;4362179;32;20261;-65
2022/12/05 07:57:40;;;;;;;2.47;2.30;;;;;;;6.69;97.16;95485.47;4364379;32;20248;-65
2022/12/05 08:00:06;;;;;;;2.27;2.13;;;;;;;7.02;95.89;95484.91;4363906;32;20189;-66
2022/12/05 08:02:32;;;;;;;3.37;2.53;;;;;;;6.75;88.56;95485.19;4371549;32;20189;-62
2022/12/05 08:04:57;;;;;;;1.47;1.47;;;;;;;6.40;85.38;95499.19;4365645;32;20228;-65
2022/12/05 08:07:22;;;;;;;1.90;1.80;;;;;;;6.28;84.98;95495.97;4374759;32;20208;-61
2022/12/05 08:09:48;;;;;;;1.87;1.77;;;;;;;5.96;86.25;95490.13;4365503;32;20200;-61
2022/12/05 08:12:13;;;;;;;3.50;1.87;;;;;;;5.92;86.65;95487.22;4372833;32;20189;-63
2022/12/05 08:14:38;;;;;;;1.57;1.47;;;;;;;5.51;87.94;95492.31;4368251;32;20248;-63
2022/12/05 08:17:04;;;;;;;3.67;2.67;;;;;;;5.63;88.33;95499.97;4353731;32;20235;-64
2022/12/05 08:19:29;;;;;;;2.27;2.13;;;;;;;5.55;88.14;95499.69;4356377;32;20193;-63
2022/12/05 08:21:54;;;;;;;4.37;2.83;;;;;;;5.65;88.49;95505.00;4370360;32;20227;-62
2022/12/05 08:24:20;;;;;;;2.20;2.10;;;;;;;5.89;86.72;95502.75;4382309;32;20223;-64
2022/12/05 08:26:45;;;;;;;1.23;1.23;;;;;;;5.97;86.20;95505.66;4370411;32;20215;-61
2022/12/05 08:29:13;;;;;;;2.23;2.03;;;;;;;5.95;86.70;95512.25;4362222;32;20211;-63
2022/12/05 08:31:42;;;;;;;1.53;1.47;;;;;;;6.07;86.80;95510.94;4373149;32;20196;-59
2022/12/05 08:34:10;;;;;;;3.13;2.93;;;;;;;5.67;88.36;95516.06;4377378;32;20321;-58
2022/12/05 08:36:36;;;;;;;1.87;1.77;;;;;;;5.74;88.94;95522.69;4373045;32;20352;-61
2022/12/05 08:39:04;;;;;;;1.47;1.47;;;;;;;5.51;89.34;95529.16;4366696;32;20277;-62
2022/12/05 08:41:30;;;;;;;1.40;1.40;;;;;;;5.77;89.11;95529.28;4366381;32;20184;-58
2022/12/05 08:43:58;;;;;;;1.97;1.87;;;;;;;5.97;88.37;95534.63;4363558;32;20312;-61
2022/12/05 08:46:23;;;;;;;2.80;2.70;;;;;;;6.25;87.05;95527.31;4360689;32;20304;-59
2022/12/05 08:48:49;;;;;;;2.43;2.33;;;;;;;6.29;86.15;95528.38;4368894;32;20276;-62
2022/12/05 08:51:14;;;;;;;1.13;1.13;;;;;;;6.26;86.51;95534.16;4371313;32;20256;-61
2022/12/05 08:53:40;;;;;;;2.00;1.90;;;;;;;6.46;85.50;95534.19;4375244;32;20216;-61
2022/12/05 08:56:07;;;;;;;1.80;1.70;;;;;;;6.28;85.76;95537.34;4371394;32;20193;-61
2022/12/05 08:58:33;;;;;;;1.47;1.37;;;;;;;6.04;86.83;95543.06;4363251;32;20185;-60
2022/12/05 09:01:10;;;;;;;2.03;1.83;;;;;;;5.91;87.81;95550.66;4373337;32;20341;-62
2022/12/05 09:03:36;;;;;;;1.97;1.87;;;;;;;5.85;88.12;95544.56;4370308;32;20190;-65
2022/12/05 09:06:20;;;;;;;2.27;2.17;;;;;;;5.63;89.22;95547.34;4372744;32;20364;-62
2022/12/05 09:08:46;;;;;;;2.43;2.23;;;;;;;5.79;88.91;95542.97;4359747;32;20218;-63
2022/12/05 09:11:23;;;;;;;1.67;1.67;;;;;;;6.05;88.47;95543.84;4369129;32;20285;-63
2022/12/05 09:13:50;;;;;;;1.83;1.33;;;;;;;6.09;87.59;95544.94;4370798;32;20275;-62
2022/12/05 09:16:18;;;;;;;1.73;1.70;;;;;;;5.98;87.80;95543.31;4366009;32;20281;-61
2022/12/05 09:18:44;;;;;;;1.77;1.67;;;;;;;6.25;87.23;95543.13;4368930;32;20272;-58
2022/12/05 09:21:13;;;;;;;1.70;1.60;;;;;;;6.40;86.15;95543.97;4371751;32;20267;-62
2022/12/05 09:23:38;;;;;;;1.23;1.23;;;;;;;6.26;86.71;95534.97;4374892;32;20224;-59
2022/12/05 09:26:05;;;;;;;1.40;1.40;;;;;;;6.29;86.95;95544.19;4371068;32;20307;-61
2022/12/05 09:28:32;;;;;;;1.80;1.70;;;;;;;6.48;86.72;95556.59;4369986;32;20193;-58
2022/12/05 09:31:01;;;;;;;1.73;1.63;;;;;;;6.58;86.14;95555.84;4373621;32;20406;-57
2022/12/05 09:33:27;;;;;;;0.70;0.70;;;;;;;6.48;85.42;95553.19;4371686;32;20347;-60
2022/12/05 09:35:53;;;;;;;1.37;1.37;;;;;;;6.28;86.89;95558.41;4367595;32;20359;-59
2022/12/05 09:38:19;;;;;;;1.60;1.57;;;;;;;6.40;86.81;95551.06;4370055;32;20317;-60
2022/12/05 09:40:44;;;;;;;2.10;2.00;;;;;;;6.39;85.76;95554.75;4364055;32;20240;-61
2022/12/05 09:43:47;;;;;;;1.40;1.40;;;;;;;6.04;87.14;95569.41;4365380;32;20184;-59
2022/12/05 09:46:32;;;;;;;1.43;1.43;;;;;;;6.46;86.51;95571.09;4347715;32;20181;-60
2022/12/05 09:48:58;;;;;;;2.93;2.33;;;;;;;6.41;86.56;95574.53;4372353;32;20265;-60
2022/12/05 09:51:25;;;;;;;1.90;1.43;;;;;;;6.24;86.96;95567.88;4379737;32;20269;-61
2022/12/05 09:53:51;;;;;;;2.03;1.83;;;;;;;6.21;87.31;95569.22;4383195;32;20284;-59
2022/12/05 09:56:31;;;;;;;4.03;2.70;;;;;;;6.02;87.79;95576.00;4360722;32;20273;-58
2022/12/05 09:58:59;;;;;;;1.97;1.87;;;;;;;6.06;87.58;95579.69;4377891;32;20208;-57
2022/12/05 10:01:42;;;;;;;1.83;1.73;;;;;;;6.10;88.23;95572.84;4366902;32;20336;-63
2022/12/05 10:04:33;;;;;;;2.30;2.20;;;;;;;6.27;88.24;95572.63;4354751;32;20343;-60
2022/12/05 10:07:17;;;;;;;2.00;1.90;;;;;;;6.50;87.18;95580.84;4375337;32;20331;-59
2022/12/05 10:09:52;;;;;;;1.87;1.77;;;;;;;6.46;87.07;95581.63;4369055;32;20288;-58
2022/12/05 10:12:50;;;;;;;1.30;1.30;;;;;;;6.55;87.43;95586.16;4371552;32;20271;-62
2022/12/05 10:15:25;;;;;;;1.97;1.67;;;;;;;6.77;86.48;95575.38;4374031;32;20273;-57
2022/12/05 10:17:58;;;;;;;2.07;1.93;;;;;;;6.72;87.07;95580.63;4373577;32;20279;-57
2022/12/05 10:20:34;;;;;;;1.60;1.50;;;;;;;6.57;87.29;95569.28;4345967;32;20333;-60
2022/12/05 10:23:07;;;;;;;1.83;1.77;;;;;;;6.65;87.21;95569.53;4358992;32;20366;-60
2022/12/05 10:25:36;;;;;;;2.10;2.00;;;;;;;6.73;86.80;95569.03;4364635;32;20322;-58
2022/12/05 10:28:13;;;;;;;1.40;1.40;;;;;;;6.34;87.71;95568.72;4360851;32;20322;-59
2022/12/05 10:30:41;;;;;;;2.97;2.77;;;;;;;6.39;88.82;95566.09;4337583;32;20294;-58
2022/12/05 10:33:15;;;;;;;2.13;2.03;;;;;;;6.58;87.73;95569.03;4342310;32;20266;-61
2022/12/05 10:35:42;;;;;;;2.43;2.33;;;;;;;6.80;86.68;95566.16;4370774;32;20295;-59
2022/12/05 10:38:31;;;;;;;1.40;1.37;;;;;;;6.64;87.68;95564.56;4374510;32;20292;-61
2022/12/05 10:41:03;;;;;;;1.83;1.73;;;;;;;6.58;88.19;95569.03;4377120;32;20276;-61
2022/12/05 10:43:42;;;;;;;2.43;1.90;;;;;;;7.04;86.64;95559.28;4362498;32;20277;-59
2022/12/05 10:46:31;;;;;;;1.97;1.87;;;;;;;6.93;85.70;95560.34;4357668;32;20285;-60
2022/12/05 10:48:58;;;;;;;1.53;1.50;;;;;;;6.89;85.74;95557.44;4348344;32;20436;-61
2022/12/05 10:51:28;;;;;;;1.50;1.50;;;;;;;6.96;86.79;95564.28;4345116;32;20356;-61
2022/12/05 10:54:06;;;;;;;3.60;2.97;;;;;;;6.74;87.58;95565.34;4347144;32;20289;-60
2022/12/05 10:56:36;;;;;;;1.93;1.83;;;;;;;6.78;86.69;95563.78;4376651;32;20288;-59
2022/12/05 10:59:04;;;;;;;1.87;1.77;;;;;;;6.83;87.18;95563.00;4383952;32;20291;-59
2022/12/05 11:01:52;;;;;;;2.80;1.93;;;;;;;7.05;85.90;95558.25;4343980;32;21779;-59
2022/12/05 11:04:32;;;;;;;1.70;1.60;;;;;;;7.27;85.07;95550.03;4348144;32;20360;-60
2022/12/05 11:07:42;;;;;;;2.10;2.00;;;;;;;7.67;83.50;95543.09;4358591;32;20281;-59
2022/12/05 11:10:39;;;;;;;1.90;1.80;;;;;;;7.50;83.97;95543.38;4351199;32;20276;-59
2022/12/05 11:13:23;;;;;;;1.33;1.33;;;;;;;7.37;84.39;95543.94;4250463;33;20296;-51
2022/12/05 11:15:49;;;;;;;3.10;2.70;;;;;;;12.68;94.14;95537.78;4290862;33;20237;-53
2022/12/05 11:18:26;;;;;;;3.13;2.93;;;;;;;15.03;70.27;95531.97;4350978;32;20210;-53
2022/12/05 11:20:55;;;;;;;2.00;1.90;;;;;;;15.99;61.70;95538.69;4351106;32;20199;-53
2022/12/05 11:23:30;;;;;;;1.53;1.53;;;;;;;16.41;55.90;95539.56;4349733;32;20208;-51
2022/12/05 11:25:58;;;;;;;3.03;2.80;;;;;;;16.66;55.97;95540.50;4340080;32;20286;-54
2022/12/05 11:28:45;;;;;;;2.57;2.40;;;;;;;16.84;53.05;95538.50;4353231;32;20204;-54
2022/12/05 11:31:27;;;;;;;1.53;1.53;;;;;;;16.82;52.76;95533.47;4369096;32;20192;-55
2022/12/05 11:34:18;;;;;;;1.90;1.80;;;;;;;16.73;52.48;95537.31;4347137;32;20220;-52
2022/12/05 11:36:54;;;;;;;1.60;1.50;;;;;;;16.43;52.40;95534.66;4361298;32;20219;-52
2022/12/05 11:39:22;;;;;;;2.10;2.00;;;;;;;16.44;52.49;95528.19;4324539;32;20189;-54
2022/12/05 11:42:29;;;;;;;2.10;2.00;;;;;;;16.25;51.83;95529.72;4337825;32;20185;-53
2022/12/05 11:45:28;;;;;;;2.30;2.10;;;;;;;16.21;52.37;95529.59;4372291;32;20197;-49
2022/12/05 11:48:27;;;;;;;2.13;2.03;;;;;;;16.22;52.26;95525.00;4323931;32;20189;-53
2022/12/05 11:51:33;;;;;;;1.83;1.73;;;;;;;16.05;52.50;95532.03;4362616;32;20188;-53
2022/12/05 11:54:34;;;;;;;1.73;1.73;;;;;;;15.78;52.11;95530.59;4328803;32;20342;-52
2022/12/05 11:57:34;;;;;;;2.33;2.23;;;;;;;15.06;51.62;95531.34;4360956;32;20276;-58
2022/12/05 12:01:05;;;;;;;2.93;2.73;;;;;;;13.00;56.47;95539.47;4364423;32;20248;-58
2022/12/05 12:03:52;;;;;;;2.70;1.90;;;;;;;10.83;65.16;95537.28;4247307;33;20225;-57
2022/12/05 12:06:57;;;;;;;3.00;2.90;;;;;;;9.53;71.42;95537.63;4297752;33;20186;-57
2022/12/05 12:09:42;;;;;;;3.77;2.93;;;;;;;9.04;73.55;95534.37;4292824;33;20182;-59
2022/12/05 12:12:30;;;;;;;2.27;2.07;;;;;;;8.41;76.54;95536.94;4287038;33;20198;-57
2022/12/05 12:15:30;;;;;;;2.87;2.67;;;;;;;7.91;79.77;95549.31;4305883;33;20289;-57
2022/12/05 12:18:33;;;;;;;3.00;2.77;;;;;;;7.78;81.12;95544.63;4306373;32;20185;-57